Time;durP1;ratioP1;P1;durP2;ratioP2;P2;SDS_P1;SDS_P2;PMS_P1;PMS_P2;Temp;Humidity;BMP_temperature;BMP_pressure;BME280_temperature;BME280_humidity;BME280_pressure;Samples;Min_cycle;Max_cycle;Signal;HPM_P1;HPM_P2
2022/09/17 00:00:51;;;;;;;6.00;4.40;;;;;;;14.35;75.48;98734.30;1701828;81;20949;-72
2022/09/17 00:03:17;;;;;;;4.53;3.75;;;;;;;14.34;75.55;98738.89;1723850;81;21090;-73
2022/09/17 00:05:44;;;;;;;6.33;4.58;;;;;;;14.35;75.57;98744.56;1723462;83;21084;-73
2022/09/17 00:08:13;;;;;;;6.22;4.05;;;;;;;14.37;75.62;98751.87;1654353;86;21589;-72
2022/09/17 00:10:43;;;;;;;5.15;4.28;;;;;;;14.40;75.54;98762.09;1694643;84;21077;-72
2022/09/17 00:13:10;;;;;;;4.22;3.83;;;;;;;14.42;75.51;98765.86;1712846;82;20989;-70
2022/09/17 00:15:42;;;;;;;6.15;4.85;;;;;;;14.43;75.47;98758.55;1733101;81;20939;-70
2022/09/17 00:18:08;;;;;;;6.58;4.87;;;;;;;14.43;75.46;98760.72;1686581;83;21610;-76
2022/09/17 00:20:43;;;;;;;6.20;4.92;;;;;;;14.40;75.48;98743.70;1717146;82;21629;-70
2022/09/17 00:23:10;;;;;;;6.20;5.60;;;;;;;14.40;75.52;98743.70;1720576;82;21138;-73
2022/09/17 00:25:43;;;;;;;5.70;5.20;;;;;;;14.39;75.54;98742.09;1732181;81;21048;-72
2022/09/17 00:28:11;;;;;;;5.62;4.35;;;;;;;14.37;75.57;98735.64;1725595;82;21043;-76
2022/09/17 00:30:43;;;;;;;6.92;5.47;;;;;;;14.37;75.69;98736.20;1693553;82;21041;-72
2022/09/17 00:33:17;;;;;;;9.55;5.80;;;;;;;14.35;75.79;98732.39;1708523;82;21027;-71
2022/09/17 00:35:44;;;;;;;6.08;4.97;;;;;;;14.34;75.90;98728.63;1729773;82;21190;-69
2022/09/17 00:38:10;;;;;;;7.47;4.87;;;;;;;14.35;76.04;98731.59;1735546;81;20957;-68
2022/09/17 00:40:37;;;;;;;7.50;5.00;;;;;;;14.36;76.05;98739.99;1717496;81;21499;-74
2022/09/17 00:43:07;;;;;;;8.03;5.40;;;;;;;14.38;76.06;98737.26;1712523;82;21020;-71
2022/09/17 00:45:34;;;;;;;5.67;5.20;;;;;;;14.40;76.00;98729.63;1723807;82;21566;-71
2022/09/17 00:48:03;;;;;;;8.25;6.22;;;;;;;14.43;75.94;98728.25;1727079;81;21181;-75
2022/09/17 00:50:40;;;;;;;11.90;6.85;;;;;;;14.41;75.91;98723.67;1685870;83;21021;-71
2022/09/17 00:53:18;;;;;;;8.80;5.65;;;;;;;14.37;75.91;98733.48;1712735;81;21042;-71
2022/09/17 00:55:49;;;;;;;7.90;6.95;;;;;;;14.34;75.94;98742.95;1695359;81;21097;-70
2022/09/17 00:58:17;;;;;;;7.65;5.62;;;;;;;14.27;76.14;98746.61;1730797;82;21040;-71
2022/09/17 01:00:45;;;;;;;11.50;6.45;;;;;;;14.21;76.23;98751.04;1724712;81;21703;-71
2022/09/17 01:03:12;;;;;;;7.83;6.40;;;;;;;14.08;76.27;98759.92;1674212;85;21577;-69
2022/09/17 01:06:01;;;;;;;10.63;6.50;;;;;;;14.00;76.67;98768.70;1713937;82;21090;-72
2022/09/17 01:08:51;;;;;;;10.75;8.78;;;;;;;13.99;77.04;98766.55;1715566;83;21589;-73
2022/09/17 01:12:01;;;;;;;9.90;7.53;;;;;;;13.96;77.37;98754.41;1703850;82;21110;-72
2022/09/17 01:14:46;;;;;;;10.75;7.83;;;;;;;13.83;77.75;98744.36;1698008;81;21113;-71
2022/09/17 01:17:31;;;;;;;8.90;6.90;;;;;;;13.71;78.24;98754.02;1633704;82;21081;-70
2022/09/17 01:20:24;;;;;;;12.20;6.80;;;;;;;13.67;78.68;98753.78;1721010;82;21093;-74
2022/09/17 01:23:09;;;;;;;14.85;9.25;;;;;;;13.65;78.90;98770.84;1705637;84;22366;-69
2022/09/17 01:26:25;;;;;;;10.93;7.58;;;;;;;13.63;79.13;98774.37;1699717;81;21509;-71
2022/09/17 01:28:57;;;;;;;17.05;10.68;;;;;;;13.53;79.27;98763.70;1735121;81;21103;-72
2022/09/17 01:31:44;;;;;;;12.30;9.65;;;;;;;13.27;78.92;98761.11;1725378;81;21017;-72
2022/09/17 01:34:51;;;;;;;11.50;9.15;;;;;;;13.04;79.41;98759.45;1715292;81;21053;-72
2022/09/17 01:37:31;;;;;;;8.93;7.97;;;;;;;12.87;80.09;98770.45;1701835;81;21113;-74
2022/09/17 01:40:19;;;;;;;10.80;6.15;;;;;;;12.86;81.43;98778.28;1736742;81;20941;-72
2022/09/17 01:43:05;;;;;;;8.95;6.95;;;;;;;12.85;82.09;98786.95;1718271;81;21852;-72
2022/09/17 01:45:43;;;;;;;10.53;6.83;;;;;;;12.89;82.51;98782.59;1725852;83;21014;-71
2022/09/17 01:48:16;;;;;;;9.78;7.10;;;;;;;12.95;82.63;98780.64;1720525;81;20896;-73
2022/09/17 01:50:59;;;;;;;9.80;6.20;;;;;;;12.99;82.72;98782.48;1736645;81;21017;-70
2022/09/17 01:53:58;;;;;;;8.75;6.72;;;;;;;13.06;82.84;98786.16;1736684;82;21046;-70
2022/09/17 01:56:32;;;;;;;8.43;5.42;;;;;;;13.16;82.78;98783.92;1718387;81;21141;-69
2022/09/17 01:59:28;;;;;;;7.65;5.65;;;;;;;13.26;82.54;98787.30;1734371;81;21570;-69
2022/09/17 02:02:06;;;;;;;6.90;5.45;;;;;;;13.33;82.17;98777.51;1712340;83;20977;-73
2022/09/17 02:04:46;;;;;;;12.28;6.12;;;;;;;13.41;81.82;98784.95;1662872;84;21534;-73
2022/09/17 02:07:21;;;;;;;7.65;5.65;;;;;;;13.45;81.40;98775.98;1712820;81;21108;-72
2022/09/17 02:09:56;;;;;;;10.68;5.75;;;;;;;13.51;80.96;98783.47;1724818;82;21048;-72
2022/09/17 02:12:28;;;;;;;6.10;5.53;;;;;;;13.54;80.78;98786.93;1721089;83;21686;-73
2022/09/17 02:14:57;;;;;;;8.15;6.20;;;;;;;13.58;80.55;98783.90;1705633;82;20951;-72
2022/09/17 02:17:36;;;;;;;7.80;5.90;;;;;;;13.66;80.34;98783.81;1739779;82;21005;-72
2022/09/17 02:20:03;;;;;;;7.08;6.37;;;;;;;13.73;80.15;98774.23;1707834;82;20997;-73
2022/09/17 02:22:42;;;;;;;8.40;6.55;;;;;;;13.81;79.80;98770.86;1716432;81;20988;-72
2022/09/17 02:25:27;;;;;;;6.40;5.80;;;;;;;13.83;79.55;98773.28;1684879;83;21005;-73
2022/09/17 02:28:00;;;;;;;7.22;6.08;;;;;;;13.83;79.47;98772.73;1722824;82;20967;-72
2022/09/17 02:30:26;;;;;;;;;;;;;;;13.83;79.33;98780.03;1738229;81;21024;-71
2022/09/17 02:32:54;;;;;;;7.53;5.95;;;;;;;13.79;79.35;98781.17;1715332;82;20189;-72
2022/09/17 02:35:21;;;;;;;6.37;5.72;;;;;;;13.74;79.53;98779.09;1712837;82;21156;-73
2022/09/17 02:37:48;;;;;;;6.90;5.78;;;;;;;13.75;79.62;98784.76;1725781;81;21024;-71
2022/09/17 02:40:16;;;;;;;6.58;5.10;;;;;;;13.74;79.58;98782.60;1733970;81;21076;-71
2022/09/17 02:42:55;;;;;;;5.75;4.87;;;;;;;13.79;79.53;98783.88;1718372;81;21384;-71
2022/09/17 02:45:41;;;;;;;7.97;6.47;;;;;;;13.81;79.21;98783.02;1735112;81;21058;-68
2022/09/17 02:48:40;;;;;;;7.05;5.37;;;;;;;13.84;79.04;98778.95;1736775;81;21217;-70
2022/09/17 02:51:24;;;;;;;6.08;4.22;;;;;;;13.85;78.79;98777.86;1726882;82;20980;-69
2022/09/17 02:54:29;;;;;;;8.10;5.92;;;;;;;13.86;78.35;98787.58;1739872;81;21047;-67
2022/09/17 02:57:17;;;;;;;8.30;5.33;;;;;;;13.86;78.20;98766.73;1742335;81;21113;-70
2022/09/17 02:59:57;;;;;;;6.70;5.20;;;;;;;13.88;78.36;98778.61;1732925;81;21068;-69
2022/09/17 03:02:36;;;;;;;8.00;6.15;;;;;;;13.90;78.36;98775.88;1710634;81;21263;-68
2022/09/17 03:05:03;;;;;;;8.25;5.22;;;;;;;13.94;78.34;98763.92;1735672;81;21095;-68
2022/09/17 03:07:31;;;;;;;7.17;5.12;;;;;;;14.00;78.18;98755.19;1734222;81;21041;-67
2022/09/17 03:09:58;;;;;;;8.70;6.60;;;;;;;14.01;78.12;98750.82;1731612;81;33719;-67
2022/09/17 03:12:25;;;;;;;7.00;5.97;;;;;;;14.05;78.16;98744.30;1730436;81;21069;-67
2022/09/17 03:14:52;;;;;;;7.17;5.50;;;;;;;14.08;77.82;98746.40;1723829;82;21143;-69
2022/09/17 03:17:18;;;;;;;10.15;5.72;;;;;;;14.05;77.87;98747.00;1728224;82;21096;-71
2022/09/17 03:19:45;;;;;;;10.95;6.37;;;;;;;14.02;78.04;98748.92;1718804;83;20979;-69
2022/09/17 03:22:11;;;;;;;13.48;6.42;;;;;;;14.01;78.05;98764.88;1734460;81;21050;-68
2022/09/17 03:24:38;;;;;;;5.05;4.55;;;;;;;13.98;77.97;98763.59;1747618;82;21043;-68
2022/09/17 03:27:04;;;;;;;7.37;5.65;;;;;;;13.97;77.57;98758.73;1748229;80;21320;-68
2022/09/17 03:29:31;;;;;;;5.35;4.83;;;;;;;13.98;77.59;98767.09;1747636;80;21029;-69
2022/09/17 03:31:59;;;;;;;5.17;4.70;;;;;;;14.03;77.62;98769.46;1749779;80;21408;-68
2022/09/17 03:34:25;;;;;;;8.80;5.50;;;;;;;14.08;77.51;98761.27;1750245;80;21074;-69
2022/09/17 03:36:53;;;;;;;8.43;5.62;;;;;;;14.11;77.33;98767.43;1735144;81;21036;-69
2022/09/17 03:39:20;;;;;;;5.42;5.03;;;;;;;14.15;77.10;98775.23;1752373;80;21087;-69
2022/09/17 03:41:46;;;;;;;5.80;4.60;;;;;;;14.15;77.03;98765.77;1740765;81;20946;-71
2022/09/17 03:44:14;;;;;;;4.70;4.17;;;;;;;14.14;76.88;98761.45;1754874;81;21009;-69
2022/09/17 03:46:42;;;;;;;6.87;5.55;;;;;;;14.14;76.91;98765.51;1760473;80;21088;-69
2022/09/17 03:49:09;;;;;;;5.72;5.22;;;;;;;14.11;76.87;98760.67;1752284;80;21049;-69
2022/09/17 03:51:35;;;;;;;18.10;11.00;;;;;;;14.10;77.00;98763.14;1743547;80;22236;-68
2022/09/17 03:54:02;;;;;;;6.22;5.53;;;;;;;14.08;77.31;98764.78;1757953;80;21041;-70
2022/09/17 03:56:29;;;;;;;9.73;5.42;;;;;;;14.07;77.38;98777.23;1761609;81;21553;-71
2022/09/17 03:59:00;;;;;;;7.12;6.40;;;;;;;14.08;77.45;98782.90;1728256;81;21056;-70
2022/09/17 04:01:27;;;;;;;6.35;5.33;;;;;;;14.11;77.31;98770.13;1745935;81;21554;-71
2022/09/17 04:03:54;;;;;;;9.13;4.95;;;;;;;14.16;76.94;98778.16;1752384;81;22153;-69
2022/09/17 04:06:21;;;;;;;7.50;6.58;;;;;;;14.20;76.71;98783.23;1754722;81;21092;-69
2022/09/17 04:08:50;;;;;;;8.48;5.20;;;;;;;14.23;76.71;98782.66;1701166;81;20966;-69
2022/09/17 04:11:17;;;;;;;6.62;4.72;;;;;;;14.25;76.60;98766.92;1734589;81;21127;-69
2022/09/17 04:13:43;;;;;;;6.03;5.45;;;;;;;14.25;76.50;98765.56;1718803;82;21048;-68
2022/09/17 04:16:10;;;;;;;11.55;6.15;;;;;;;14.23;76.54;98775.35;1747172;81;21120;-69
2022/09/17 04:18:36;;;;;;;12.10;10.90;;;;;;;14.20;77.18;98796.20;1748632;82;21035;-69
2022/09/17 04:21:04;;;;;;;10.08;8.18;;;;;;;14.01;78.61;98798.68;1729992;82;21383;-69
2022/09/17 04:23:30;;;;;;;11.48;7.50;;;;;;;13.86;79.50;98804.57;1681219;83;22286;-69
2022/09/17 04:25:57;;;;;;;24.98;20.97;;;;;;;13.78;80.36;98803.89;1746392;81;22183;-67
2022/09/17 04:28:23;;;;;;;11.28;9.65;;;;;;;13.75;80.72;98803.67;1751941;81;21091;-70
2022/09/17 04:30:50;;;;;;;14.05;11.75;;;;;;;13.74;81.13;98804.22;1741649;80;21046;-69
2022/09/17 04:33:16;;;;;;;9.25;8.25;;;;;;;13.68;81.45;98804.57;1746054;80;21066;-66
2022/09/17 04:35:43;;;;;;;7.92;7.20;;;;;;;13.68;81.64;98809.97;1766006;81;21281;-70
2022/09/17 04:38:12;;;;;;;7.50;6.72;;;;;;;13.72;81.52;98805.59;1739807;81;21053;-69
2022/09/17 04:40:41;;;;;;;9.33;7.33;;;;;;;13.76;81.26;98814.20;1758070;80;22182;-68
2022/09/17 04:43:09;;;;;;;10.53;7.45;;;;;;;13.80;80.89;98814.41;1725434;81;21065;-69
2022/09/17 04:45:36;;;;;;;7.40;5.75;;;;;;;13.86;80.62;98812.67;1749775;81;20970;-68
2022/09/17 04:48:03;;;;;;;7.65;6.65;;;;;;;13.93;80.38;98821.78;1751401;80;21013;-67
2022/09/17 04:50:30;;;;;;;11.85;6.65;;;;;;;13.98;80.31;98818.46;1748229;80;21017;-68
2022/09/17 04:52:57;;;;;;;10.40;6.17;;;;;;;14.06;80.17;98815.62;1745422;80;21066;-69
2022/09/17 04:55:23;;;;;;;13.58;7.00;;;;;;;14.10;79.93;98818.00;1762088;81;22240;-68
2022/09/17 04:57:52;;;;;;;10.78;7.45;;;;;;;14.13;79.79;98811.21;1744166;81;21048;-68
2022/09/17 05:00:20;;;;;;;11.65;7.85;;;;;;;14.15;79.71;98807.11;1748389;81;20973;-68
2022/09/17 05:02:48;;;;;;;11.08;7.60;;;;;;;14.16;79.97;98798.45;1744872;81;21091;-68
2022/09/17 05:05:16;;;;;;;8.78;7.87;;;;;;;14.14;80.27;98791.20;1753910;81;21151;-68
2022/09/17 05:07:42;;;;;;;11.12;8.15;;;;;;;14.11;80.68;98789.87;1750562;81;20965;-68
2022/09/17 05:10:10;;;;;;;8.78;7.92;;;;;;;14.10;81.09;98792.89;1751023;81;20989;-67
2022/09/17 05:12:37;;;;;;;10.53;9.43;;;;;;;14.09;81.31;98788.56;1760203;81;21492;-68
2022/09/17 05:15:06;;;;;;;9.78;8.70;;;;;;;14.08;81.53;98801.83;1739655;81;21260;-70
2022/09/17 05:17:34;;;;;;;11.95;8.83;;;;;;;14.06;81.78;98818.34;1744247;81;21036;-71
2022/09/17 05:20:02;;;;;;;11.78;8.40;;;;;;;14.10;82.01;98815.87;1758804;80;22395;-68
2022/09/17 05:22:29;;;;;;;9.93;8.95;;;;;;;14.16;82.04;98818.73;1739163;80;21081;-68
2022/09/17 05:24:56;;;;;;;9.15;8.25;;;;;;;14.20;81.96;98820.55;1750915;80;20962;-67
2022/09/17 05:27:22;;;;;;;8.15;7.35;;;;;;;14.21;81.98;98817.30;1755000;80;21104;-67
2022/09/17 05:29:49;;;;;;;15.40;8.78;;;;;;;14.19;81.97;98819.51;1735460;80;21098;-69
2022/09/17 05:32:15;;;;;;;9.03;7.45;;;;;;;14.16;82.18;98820.08;1764478;81;21045;-67
2022/09/17 05:34:42;;;;;;;74.17;51.88;;;;;;;14.16;82.40;98814.67;1759198;81;21539;-68
2022/09/17 05:37:10;;;;;;;12.13;9.78;;;;;;;14.17;82.42;98818.44;1749290;80;21079;-69
2022/09/17 05:39:36;;;;;;;12.45;10.18;;;;;;;14.22;82.59;98814.31;1712276;83;21098;-69
2022/09/17 05:42:05;;;;;;;10.93;8.98;;;;;;;14.31;82.44;98813.08;1703773;83;21144;-69
2022/09/17 05:44:33;;;;;;;10.08;8.50;;;;;;;14.36;82.17;98816.55;1728365;82;20949;-69
2022/09/17 05:46:59;;;;;;;9.75;8.53;;;;;;;14.38;81.99;98821.12;1721192;82;21131;-68
2022/09/17 05:49:26;;;;;;;12.00;8.30;;;;;;;14.35;82.01;98820.31;1726528;81;21100;-69
2022/09/17 05:51:52;;;;;;;9.75;8.38;;;;;;;14.36;82.08;98816.55;1730710;81;21524;-70
2022/09/17 05:54:19;;;;;;;7.90;7.05;;;;;;;14.41;82.34;98803.48;1748606;81;22070;-68
2022/09/17 05:56:46;;;;;;;8.75;7.90;;;;;;;14.44;82.30;98802.07;1736311;81;21019;-70
2022/09/17 05:59:14;;;;;;;13.58;10.15;;;;;;;14.39;82.62;98805.12;1752091;80;21027;-68
2022/09/17 06:01:41;;;;;;;11.83;10.60;;;;;;;14.32;82.83;98814.15;1711553;82;21098;-72
2022/09/17 06:04:09;;;;;;;8.90;8.10;;;;;;;14.31;83.17;98822.00;1724123;81;21028;-68
2022/09/17 06:06:37;;;;;;;10.40;8.70;;;;;;;14.32;83.30;98824.16;1713923;82;21123;-70
2022/09/17 06:09:05;;;;;;;10.55;8.28;;;;;;;14.32;83.31;98828.22;1729473;82;21557;-68
2022/09/17 06:11:31;;;;;;;14.90;9.45;;;;;;;14.32;83.53;98829.56;1719287;82;21544;-68
2022/09/17 06:13:58;;;;;;;13.68;9.05;;;;;;;14.36;83.67;98831.42;1717710;82;21066;-68
2022/09/17 06:16:25;;;;;;;15.05;8.43;;;;;;;14.46;83.55;98843.17;1717518;83;20959;-70
2022/09/17 06:18:52;;;;;;;15.72;8.80;;;;;;;14.52;83.24;98836.04;1717422;82;21193;-68
2022/09/17 06:21:20;;;;;;;16.35;9.05;;;;;;;14.59;83.18;98834.28;1726378;82;21034;-69
2022/09/17 06:23:49;;;;;;;17.67;10.10;;;;;;;14.59;82.70;98828.32;1735976;82;20980;-67
2022/09/17 06:26:17;;;;;;;15.88;10.13;;;;;;;14.57;82.45;98839.20;1693606;82;21071;-72
2022/09/17 06:28:44;;;;;;;17.15;9.65;;;;;;;14.56;82.34;98843.00;1715563;82;21105;-71
2022/09/17 06:31:11;;;;;;;21.15;9.88;;;;;;;14.56;82.41;98834.89;1735352;81;21378;-66
2022/09/17 06:33:38;;;;;;;11.70;8.83;;;;;;;14.62;82.39;98829.65;1738320;82;21023;-67
2022/09/17 06:36:09;;;;;;;11.40;9.13;;;;;;;14.71;81.80;98821.09;1732661;82;20943;-68
2022/09/17 06:38:37;;;;;;;13.50;7.78;;;;;;;14.77;81.40;98809.86;1733409;80;21621;-70
2022/09/17 06:41:06;;;;;;;11.48;7.67;;;;;;;14.82;80.76;98812.47;1736230;80;21016;-70
2022/09/17 06:43:32;;;;;;;16.57;8.20;;;;;;;14.81;80.76;98824.43;1760188;81;21206;-67
2022/09/17 06:46:07;;;;;;;23.80;11.28;;;;;;;14.79;81.17;98822.56;1739865;80;21000;-70
2022/09/17 06:48:34;;;;;;;12.70;10.28;;;;;;;14.73;81.73;98833.22;1741328;80;21038;-69
2022/09/17 06:51:08;;;;;;;12.18;8.78;;;;;;;14.69;82.11;98828.15;1749075;80;21612;-70
2022/09/17 06:53:37;;;;;;;12.98;8.58;;;;;;;14.71;82.23;98842.20;1761334;81;21072;-68
2022/09/17 06:56:04;;;;;;;10.60;9.30;;;;;;;14.77;82.23;98838.86;1753614;80;21131;-68
2022/09/17 06:58:30;;;;;;;10.00;7.47;;;;;;;14.84;82.14;98829.23;1745928;81;21052;-68
2022/09/17 07:01:00;;;;;;;9.58;7.15;;;;;;;14.87;81.40;98834.59;1753623;80;20997;-68
2022/09/17 07:03:27;;;;;;;7.95;7.10;;;;;;;14.86;81.27;98831.66;1761099;81;21021;-68
2022/09/17 07:05:55;;;;;;;6.87;6.12;;;;;;;14.87;81.05;98833.81;1745712;80;21084;-68
2022/09/17 07:08:22;;;;;;;9.18;6.55;;;;;;;14.89;80.80;98839.72;1737960;80;21149;-69
2022/09/17 07:10:48;;;;;;;7.28;5.40;;;;;;;14.87;80.75;98841.36;1753158;80;20981;-67
2022/09/17 07:13:15;;;;;;;34.38;26.40;;;;;;;14.90;80.77;98841.33;1759755;81;21092;-67
2022/09/17 07:15:41;;;;;;;16.10;11.18;;;;;;;14.92;80.71;98827.73;1753615;80;21071;-66
2022/09/17 07:18:09;;;;;;;9.05;8.10;;;;;;;14.93;80.41;98834.76;1736494;81;21517;-67
2022/09/17 07:20:37;;;;;;;10.20;7.92;;;;;;;14.92;80.49;98837.75;1761352;81;21590;-68
2022/09/17 07:23:04;;;;;;;12.13;8.65;;;;;;;14.93;80.33;98835.30;1760797;80;21012;-69
2022/09/17 07:25:31;;;;;;;10.10;7.53;;;;;;;14.90;80.68;98838.08;1744433;80;21032;-68
2022/09/17 07:28:01;;;;;;;11.80;9.85;;;;;;;14.90;80.83;98829.95;1757030;80;20999;-68
2022/09/17 07:30:28;;;;;;;45.88;40.90;;;;;;;14.90;81.07;98831.30;1736692;81;21010;-68
2022/09/17 07:32:55;;;;;;;16.12;9.10;;;;;;;14.94;81.20;98843.69;1742215;80;21237;-69
2022/09/17 07:35:22;;;;;;;13.40;7.72;;;;;;;14.96;81.18;98843.66;1732501;82;21057;-72
2022/09/17 07:37:48;;;;;;;13.32;7.35;;;;;;;14.99;81.32;98832.22;1738503;80;21035;-69
2022/09/17 07:40:15;;;;;;;8.23;7.15;;;;;;;15.01;81.30;98837.34;1750064;80;21034;-68
2022/09/17 07:42:41;;;;;;;15.10;8.00;;;;;;;15.04;81.30;98837.54;1749854;80;21077;-69
2022/09/17 07:45:09;;;;;;;11.40;7.58;;;;;;;15.09;81.43;98840.15;1743110;80;21141;-67
2022/09/17 07:47:39;;;;;;;7.92;6.00;;;;;;;15.20;81.36;98840.77;1760999;80;21004;-72
2022/09/17 07:50:08;;;;;;;15.43;7.53;;;;;;;15.27;80.86;98835.73;1761071;80;21064;-68
2022/09/17 07:52:35;;;;;;;8.03;7.00;;;;;;;15.26;80.89;98834.92;1749876;81;21158;-68
2022/09/17 07:55:05;;;;;;;8.60;6.65;;;;;;;15.25;81.11;98845.50;1759625;80;21514;-69
2022/09/17 07:57:32;;;;;;;9.88;7.20;;;;;;;15.24;81.10;98842.57;1727434;81;21141;-70
2022/09/17 07:59:58;;;;;;;7.22;6.47;;;;;;;15.23;81.53;98838.25;1750566;81;20917;-68
2022/09/17 08:02:27;;;;;;;11.53;7.20;;;;;;;15.24;81.90;98830.38;1737234;80;21033;-69
2022/09/17 08:04:54;;;;;;;10.82;8.55;;;;;;;15.27;82.10;98825.70;1758111;80;21055;-68
2022/09/17 08:07:22;;;;;;;12.63;8.15;;;;;;;15.32;82.17;98830.77;1735690;80;21614;-70
2022/09/17 08:09:50;;;;;;;10.85;8.75;;;;;;;15.32;82.38;98830.77;1753434;81;21125;-69
2022/09/17 08:12:18;;;;;;;12.82;7.75;;;;;;;15.39;82.31;98836.59;1725166;81;21049;-71
2022/09/17 08:14:45;;;;;;;8.08;7.05;;;;;;;15.48;82.01;98838.30;1704357;82;21650;-70
2022/09/17 08:17:12;;;;;;;12.60;10.95;;;;;;;15.55;81.33;98829.22;1724305;81;21181;-69
2022/09/17 08:19:39;;;;;;;8.70;7.42;;;;;;;15.60;81.08;98831.02;1738825;80;21112;-67
2022/09/17 08:22:07;;;;;;;20.17;15.23;;;;;;;15.69;80.77;98830.00;1761041;80;21039;-70
2022/09/17 08:24:36;;;;;;;11.73;7.90;;;;;;;15.77;80.17;98841.25;1757885;80;21562;-70
2022/09/17 08:27:03;;;;;;;9.85;7.70;;;;;;;15.79;79.63;98849.31;1734983;82;21068;-66
2022/09/17 08:29:30;;;;;;;8.48;6.85;;;;;;;15.76;78.92;98840.98;1729403;81;21576;-68
2022/09/17 08:31:57;;;;;;;8.55;7.62;;;;;;;15.73;78.83;98840.25;1719459;83;21030;-68
2022/09/17 08:34:24;;;;;;;7.87;5.92;;;;;;;15.69;79.00;98837.33;1724348;82;21127;-69
2022/09/17 08:36:51;;;;;;;10.08;6.35;;;;;;;15.71;79.19;98844.61;1727794;81;21562;-70
2022/09/17 08:39:18;;;;;;;6.20;5.15;;;;;;;15.71;79.07;98841.91;1728003;83;21090;-69
2022/09/17 08:42:14;;;;;;;8.33;6.35;;;;;;;15.70;78.71;98845.72;1727662;83;21566;-68
2022/09/17 08:44:45;;;;;;;7.15;5.90;;;;;;;15.74;78.61;98850.77;1714395;83;21476;-69
2022/09/17 08:47:17;;;;;;;11.15;5.65;;;;;;;15.77;78.15;98844.77;1721180;82;21126;-69
2022/09/17 08:49:53;;;;;;;5.92;5.37;;;;;;;15.77;77.89;98844.77;1732622;82;21024;-70
2022/09/17 08:53:01;;;;;;;5.25;4.80;;;;;;;15.77;77.23;98848.02;1725579;82;21034;-71
2022/09/17 08:55:33;;;;;;;4.75;4.35;;;;;;;15.78;77.01;98840.92;1705772;83;21082;-68
2022/09/17 08:58:38;;;;;;;6.03;5.53;;;;;;;15.80;76.76;98836.01;1718662;81;21591;-69
2022/09/17 09:01:10;;;;;;;5.37;4.17;;;;;;;15.80;76.70;98833.30;1729385;81;21361;-70
2022/09/17 09:03:55;;;;;;;5.23;4.73;;;;;;;15.86;76.34;98835.34;1736458;82;21553;-69
2022/09/17 09:06:25;;;;;;;10.50;7.03;;;;;;;15.91;76.06;98831.97;1731513;81;21071;-69
2022/09/17 09:09:02;;;;;;;8.15;5.35;;;;;;;15.96;75.65;98826.44;1727434;81;20978;-69
2022/09/17 09:11:29;;;;;;;7.25;6.55;;;;;;;16.03;75.25;98830.06;1730508;82;21082;-68
2022/09/17 09:14:05;;;;;;;6.83;5.70;;;;;;;16.07;75.29;98829.14;1722147;81;21923;-68
2022/09/17 09:16:34;;;;;;;5.97;5.47;;;;;;;16.13;75.32;98830.64;1757043;81;21040;-70
2022/09/17 09:19:24;;;;;;;6.05;5.08;;;;;;;16.18;74.63;98838.41;1734213;82;21132;-71
2022/09/17 09:22:03;;;;;;;5.53;4.03;;;;;;;16.18;74.42;98835.14;1736902;82;21046;-69
2022/09/17 09:24:58;;;;;;;5.22;4.53;;;;;;;16.18;73.60;98835.69;1749538;80;21094;-69
2022/09/17 09:27:28;;;;;;;4.72;3.60;;;;;;;16.14;72.98;98837.67;1750242;81;21179;-67
2022/09/17 09:30:06;;;;;;;3.98;3.45;;;;;;;16.04;73.24;98835.19;1745038;81;21008;-66
2022/09/17 09:33:03;;;;;;;7.12;4.40;;;;;;;16.02;73.53;98828.45;1725540;82;21128;-67
2022/09/17 09:35:34;;;;;;;5.60;4.80;;;;;;;16.01;73.96;98830.39;1715331;81;21052;-69
2022/09/17 09:38:09;;;;;;;6.97;5.10;;;;;;;15.99;74.29;98831.79;1720873;82;21079;-67
2022/09/17 09:40:57;;;;;;;5.72;4.42;;;;;;;15.96;74.56;98831.86;1737407;82;21214;-67
2022/09/17 09:43:32;;;;;;;6.28;4.53;;;;;;;15.96;74.92;98836.48;1737130;82;21033;-67
2022/09/17 09:46:28;;;;;;;6.03;5.10;;;;;;;15.91;75.23;98829.27;1714862;82;21010;-67
2022/09/17 09:49:38;;;;;;;4.10;3.70;;;;;;;15.88;75.70;98833.92;1746672;80;21010;-69
2022/09/17 09:52:50;;;;;;;4.62;4.03;;;;;;;15.93;75.82;98837.88;1734542;81;21363;-68
2022/09/17 09:55:48;;;;;;;5.97;5.03;;;;;;;15.92;75.90;98836.27;1717892;82;21766;-69
2022/09/17 09:58:37;;;;;;;7.80;5.62;;;;;;;15.95;76.19;98834.87;1737313;82;21077;-69
2022/09/17 10:01:16;;;;;;;5.05;4.30;;;;;;;15.96;76.36;98834.57;1729136;82;21457;-70
2022/09/17 10:03:44;;;;;;;8.13;4.90;;;;;;;15.98;76.64;98839.67;1705633;83;21595;-72
2022/09/17 10:06:11;;;;;;;9.05;6.08;;;;;;;15.97;76.99;98847.00;1743447;82;21057;-68
2022/09/17 10:08:40;;;;;;;6.20;4.97;;;;;;;16.00;77.21;98850.48;1740150;80;21225;-70
2022/09/17 10:11:19;;;;;;;7.03;5.25;;;;;;;16.00;77.45;98855.09;1721258;82;21033;-69
2022/09/17 10:13:45;;;;;;;6.15;5.37;;;;;;;16.03;77.44;98857.99;1721624;82;21795;-68
2022/09/17 10:16:24;;;;;;;9.00;6.62;;;;;;;16.04;77.38;98862.31;1721787;82;21137;-69
2022/09/17 10:19:06;;;;;;;7.80;6.00;;;;;;;16.07;76.98;98854.91;1721222;82;21104;-67
2022/09/17 10:21:40;;;;;;;6.42;5.62;;;;;;;16.02;76.71;98843.37;1719782;82;21094;-69
2022/09/17 10:24:30;;;;;;;9.93;6.00;;;;;;;15.92;77.10;98840.91;1735800;81;21473;-71
2022/09/17 10:27:03;;;;;;;13.13;6.15;;;;;;;15.86;77.37;98844.28;1735013;81;21032;-70
2022/09/17 10:29:29;;;;;;;11.85;6.10;;;;;;;15.86;77.52;98850.27;1736360;81;21117;-71
2022/09/17 10:31:56;;;;;;;7.35;6.28;;;;;;;15.87;77.76;98860.00;1735894;81;21600;-74
2022/09/17 10:34:27;;;;;;;7.58;5.78;;;;;;;15.88;78.02;98846.67;1735747;81;21212;-70
2022/09/17 10:36:57;;;;;;;15.38;6.62;;;;;;;15.94;77.99;98845.46;1736186;81;20959;-69
2022/09/17 10:39:37;;;;;;;8.00;6.67;;;;;;;15.96;78.10;98835.93;1708884;82;21131;-67
2022/09/17 10:42:15;;;;;;;7.33;6.00;;;;;;;16.02;77.99;98836.04;1736041;81;21003;-69
2022/09/17 10:44:57;;;;;;;10.18;6.45;;;;;;;16.08;77.90;98847.58;1715504;81;22254;-71
2022/09/17 10:47:29;;;;;;;10.03;6.20;;;;;;;16.10;77.78;98853.52;1719642;81;22117;-68
2022/09/17 10:50:03;;;;;;;8.78;6.97;;;;;;;16.09;77.58;98840.50;1735927;82;20972;-69
2022/09/17 10:52:41;;;;;;;7.70;5.95;;;;;;;16.08;77.53;98842.96;1735851;81;21196;-68
2022/09/17 10:55:19;;;;;;;7.20;5.17;;;;;;;16.03;77.79;98851.77;1727166;82;21078;-68
2022/09/17 10:58:09;;;;;;;7.92;6.03;;;;;;;16.01;77.86;98849.92;1722266;83;20974;-70
2022/09/17 11:01:21;;;;;;;8.90;6.58;;;;;;;16.04;77.99;98847.95;1708931;82;21187;-70
2022/09/17 11:04:17;;;;;;;8.48;6.62;;;;;;;16.07;78.12;98849.48;1728462;81;20933;-71
2022/09/17 11:07:39;;;;;;;7.92;5.47;;;;;;;16.13;77.91;98851.53;1734085;82;21623;-68
2022/09/17 11:10:19;;;;;;;5.35;4.87;;;;;;;16.12;77.42;98852.64;1723730;82;20925;-70
2022/09/17 11:13:21;;;;;;;11.03;6.25;;;;;;;16.09;77.06;98844.57;1736125;82;21103;-70
2022/09/17 11:16:19;;;;;;;6.15;5.47;;;;;;;16.11;77.20;98845.62;1719946;82;21277;-69
2022/09/17 11:19:03;;;;;;;6.75;5.87;;;;;;;16.18;77.25;98844.63;1693884;83;22305;-70
2022/09/17 11:21:53;;;;;;;6.40;5.80;;;;;;;16.17;77.34;98836.24;1712858;83;21033;-68
2022/09/17 11:24:47;;;;;;;7.83;5.65;;;;;;;16.17;77.37;98832.17;1695573;82;21051;-69
2022/09/17 11:27:46;;;;;;;5.65;5.08;;;;;;;16.19;77.49;98834.04;1721729;83;21045;-68
2022/09/17 11:30:20;;;;;;;5.80;4.78;;;;;;;16.20;77.09;98829.41;1727844;82;21160;-68
2022/09/17 11:33:12;;;;;;;6.53;5.37;;;;;;;16.25;77.23;98825.23;1723177;82;21616;-69
2022/09/17 11:35:50;;;;;;;5.72;5.12;;;;;;;16.29;76.76;98831.09;1721478;81;21578;-69
2022/09/17 11:38:47;;;;;;;8.23;5.75;;;;;;;16.30;76.66;98827.82;1720870;83;21109;-71
2022/09/17 11:41:32;;;;;;;5.67;5.12;;;;;;;16.30;76.83;98829.17;1720921;81;21043;-65
2022/09/17 11:44:36;;;;;;;5.70;5.17;;;;;;;16.29;76.90;98818.07;1708155;82;21249;-69
2022/09/17 11:47:26;;;;;;;10.18;5.97;;;;;;;16.31;77.26;98811.77;1702142;84;21110;-69
2022/09/17 11:50:03;;;;;;;6.95;5.65;;;;;;;16.36;77.57;98815.71;1732833;82;20947;-70
2022/09/17 11:52:41;;;;;;;8.80;6.00;;;;;;;16.43;77.28;98817.45;1736203;82;21183;-68
2022/09/17 11:55:19;;;;;;;6.50;5.83;;;;;;;16.47;77.32;98803.50;1735117;82;21515;-71
2022/09/17 11:57:45;;;;;;;5.53;5.03;;;;;;;16.54;77.17;98792.47;1722229;83;22426;-72
2022/09/17 12:00:17;;;;;;;6.50;5.72;;;;;;;16.61;76.96;98772.23;1721391;81;21070;-70